Time;durP1;ratioP1;P1;durP2;ratioP2;P2;SDS_P1;SDS_P2;PMS_P1;PMS_P2;Temp;Humidity;BMP_temperature;BMP_pressure;BME280_temperature;BME280_humidity;BME280_pressure;Samples;Min_cycle;Max_cycle;Signal;HPM_P1;HPM_P2
2021/06/29 00:00:12;;;;;;;;;;;;;;;28.07;47.01;100879.84;5095972;28;1002;-40
2021/06/29 00:02:43;;;;;;;;;;;;;;;28.10;47.25;100875.91;5103021;28;770;-27
2021/06/29 00:05:08;;;;;;;;;;;;;;;28.10;46.99;100884.03;5103336;28;874;-26
2021/06/29 00:07:34;;;;;;;;;;;;;;;28.09;46.91;100879.66;5103122;28;742;-31
2021/06/29 00:09:59;;;;;;;;;;;;;;;28.13;46.97;100874.72;5103165;28;810;-27
2021/06/29 00:12:24;;;;;;;;;;;;;;;28.09;46.97;100874.25;5102988;28;821;-27
2021/06/29 00:14:50;;;;;;;;;;;;;;;28.13;46.80;100878.25;5102545;28;955;-28
2021/06/29 00:17:15;;;;;;;;;;;;;;;28.19;46.86;100879.38;5103421;28;1967;-28
2021/06/29 00:19:40;;;;;;;;;;;;;;;28.14;47.34;100876.38;5102842;28;807;-28
2021/06/29 00:22:06;;;;;;;;;;;;;;;28.14;47.18;100871.81;5103050;28;1197;-28
2021/06/29 00:24:32;;;;;;;;;;;;;;;28.12;47.13;100871.16;5102830;28;818;-27
2021/06/29 00:26:57;;;;;;;;;;;;;;;28.17;46.86;100874.16;5103030;28;854;-26
2021/06/29 00:29:22;;;;;;;;;;;;;;;28.17;47.17;100881.41;5103100;28;967;-29
2021/06/29 00:31:47;;;;;;;;;;;;;;;28.15;46.94;100875.34;5102667;28;842;-30
2021/06/29 00:34:13;;;;;;;;;;;;;;;28.11;47.30;100881.13;5103003;28;807;-26
2021/06/29 00:36:38;;;;;;;;;;;;;;;28.08;47.50;100884.22;5102980;28;1973;-30
2021/06/29 00:39:04;;;;;;;;;;;;;;;28.15;47.00;100878.91;5102719;28;809;-41
2021/06/29 00:41:29;;;;;;;;;;;;;;;28.14;47.21;100876.38;5102644;28;811;-41
2021/06/29 00:43:54;;;;;;;;;;;;;;;28.14;47.12;100876.38;5102823;28;939;-27
2021/06/29 00:46:19;;;;;;;;;;;;;;;28.14;47.38;100871.81;5102836;28;847;-41
2021/06/29 00:48:45;;;;;;;;;;;;;;;28.14;47.34;100884.50;5102915;28;743;-29
2021/06/29 00:51:13;;;;;;;;;;;;;;;28.08;47.10;100867.13;5102799;28;759;-42
2021/06/29 00:53:38;;;;;;;;;;;;;;;28.09;47.51;100871.53;5102506;28;827;-26
2021/06/29 00:56:05;;;;;;;;;;;;;;;28.09;47.30;100874.25;5103102;28;1971;-33
2021/06/29 00:58:30;;;;;;;;;;;;;;;28.16;47.39;100869.75;5102982;28;835;-30
2021/06/29 01:00:55;;;;;;;;;;;;;;;28.12;47.22;100865.75;5101883;28;1009;-27
2021/06/29 01:03:21;;;;;;;;;;;;;;;28.16;47.38;100864.34;5102776;28;854;-36
2021/06/29 01:05:46;;;;;;;;;;;;;;;28.17;47.10;100870.59;5102864;28;783;-27
2021/06/29 01:08:11;;;;;;;;;;;;;;;28.13;47.18;100864.72;5102296;28;776;-31
2021/06/29 01:10:36;;;;;;;;;;;;;;;28.16;47.16;100871.63;5102466;28;832;-28
2021/06/29 01:13:02;;;;;;;;;;;;;;;28.14;47.16;100868.28;5100190;28;843;-28
2021/06/29 01:15:27;;;;;;;;;;;;;;;28.11;47.30;100867.59;5098798;28;947;-27
2021/06/29 01:17:53;;;;;;;;;;;;;;;28.18;47.01;100865.00;5099287;28;1905;-27
2021/06/29 01:20:23;;;;;;;;;;;;;;;28.18;46.98;100866.84;5099163;28;809;-27
2021/06/29 01:22:52;;;;;;;;;;;;;;;28.20;46.97;100868.34;5098834;28;1168;-28
2021/06/29 01:25:17;;;;;;;;;;;;;;;28.17;47.07;100859.78;5099767;28;816;-26
2021/06/29 01:28:31;;;;;;;;;;;;;;;28.21;47.03;100864.63;5099428;28;783;-27
2021/06/29 01:32:53;;;;;;;;;;;;;;;28.16;46.93;100858.94;5099568;28;775;-25
2021/06/29 01:35:19;;;;;;;;;;;;;;;28.14;47.40;100857.44;5099213;28;780;-26
2021/06/29 01:37:44;;;;;;;;;;;;;;;28.16;47.11;100861.63;5098446;28;1905;-26
2021/06/29 01:40:26;;;;;;;;;;;;;;;28.15;47.34;100859.97;5099086;28;792;-26
2021/06/29 01:42:54;;;;;;;;;;;;;;;28.11;47.04;100861.38;5098629;28;847;-35
2021/06/29 01:45:19;;;;;;;;;;;;;;;28.17;47.02;100857.06;5098478;28;951;-27
2021/06/29 01:50:17;;;;;;;;;;;;;;;28.17;47.14;100857.91;5098488;28;697;-26
2021/06/29 01:52:42;;;;;;;;;;;;;;;28.11;47.04;100862.19;5098185;28;840;-26
2021/06/29 01:55:08;;;;;;;;;;;;;;;28.14;47.25;100860.16;5098812;28;853;-26
2021/06/29 01:57:35;;;;;;;;;;;;;;;28.07;46.95;100858.22;5098409;28;1968;-29
2021/06/29 02:00:01;;;;;;;;;;;;;;;28.11;47.06;100870.31;5098355;28;998;-29
2021/06/29 02:02:26;;;;;;;;;;;;;;;28.10;47.37;100867.78;5098687;28;812;-26
2021/06/29 02:04:51;;;;;;;;;;;;;;;28.13;47.03;100866.59;5098657;28;851;-35
2021/06/29 02:07:16;;;;;;;;;;;;;;;28.09;47.24;100866.94;5098214;28;799;-26
2021/06/29 02:09:42;;;;;;;;;;;;;;;28.10;47.02;100873.22;5098593;28;815;-40
2021/06/29 02:12:07;;;;;;;;;;;;;;;28.14;46.87;100871.81;5097937;28;851;-27
2021/06/29 02:14:33;;;;;;;;;;;;;;;28.14;47.13;100873.69;5097806;28;951;-41
2021/06/29 02:16:59;;;;;;;;;;;;;;;28.13;47.07;100872.00;5098349;28;1906;-26
2021/06/29 02:19:24;;;;;;;;;;;;;;;28.13;46.82;100869.31;5098150;28;859;-30
2021/06/29 02:21:49;;;;;;;;;;;;;;;28.07;46.93;100869.03;5097840;28;1318;-28
2021/06/29 02:24:15;;;;;;;;;;;;;;;28.10;47.12;100874.06;5098095;28;760;-28
2021/06/29 02:26:40;;;;;;;;;;;;;;;28.17;46.79;100876.84;5098011;28;811;-29
2021/06/29 02:29:06;;;;;;;;;;;;;;;28.16;46.75;100874.34;5097557;28;966;-30
2021/06/29 02:31:31;;;;;;;;;;;;;;;28.12;47.17;100879.28;5097584;28;863;-26
2021/06/29 02:33:56;;;;;;;;;;;;;;;28.14;46.83;100877.22;5097837;28;803;-41
2021/06/29 02:36:21;;;;;;;;;;;;;;;28.10;47.18;100868.66;5097641;28;1975;-39
2021/06/29 02:38:47;;;;;;;;;;;;;;;28.09;47.12;100866.94;5098193;28;814;-26
2021/06/29 02:41:12;;;;;;;;;;;;;;;28.11;47.28;100867.59;5097720;28;870;-28
2021/06/29 02:44:09;;;;;;;;;;;;;;;28.12;47.02;100863.03;5097799;28;789;-28
2021/06/29 02:46:35;;;;;;;;;;;;;;;28.13;46.83;100856.59;5049274;28;1203;-27
2021/06/29 02:49:00;;;;;;;;;;;;;;;28.10;46.93;100856.97;5097696;28;917;-27
2021/06/29 02:51:25;;;;;;;;;;;;;;;28.13;46.91;100862.00;5096904;28;885;-28
2021/06/29 02:53:51;;;;;;;;;;;;;;;28.11;47.05;100859.50;5097737;28;783;-41
2021/06/29 02:59:00;;;;;;;;;;;;;;;28.06;47.19;100851.09;5096738;28;1002;-40
2021/06/29 03:01:25;;;;;;;;;;;;;;;28.10;47.26;100852.41;5097018;28;700;-27
2021/06/29 03:03:50;;;;;;;;;;;;;;;28.11;47.26;100851.38;5097331;28;749;-29
2021/06/29 03:06:16;;;;;;;;;;;;;;;28.16;46.90;100848.09;5097031;28;871;-26
2021/06/29 03:08:41;;;;;;;;;;;;;;;28.20;46.82;100843.16;5096989;28;971;-27
2021/06/29 03:11:06;;;;;;;;;;;;;;;28.21;46.76;100845.69;5097271;28;811;-27
2021/06/29 03:13:31;;;;;;;;;;;;;;;28.25;46.76;100848.84;5096170;28;1025;-27
2021/06/29 03:15:57;;;;;;;;;;;;;;;27.55;48.59;100849.06;5097491;28;947;-27
2021/06/29 03:18:23;;;;;;;;;;;;;;;27.12;49.73;100854.00;5097302;28;1959;-40
2021/06/29 03:20:49;;;;;;;;;;;;;;;26.88;50.85;100852.28;5096192;28;874;-41
2021/06/29 03:23:14;;;;;;;;;;;;;;;26.84;51.23;100851.78;5096845;28;1692;-31
2021/06/29 03:25:39;;;;;;;;;;;;;;;26.87;51.02;100856.00;5097112;28;816;-28
2021/06/29 03:28:20;;;;;;;;;;;;;;;;;;;;;
2021/06/29 03:36:51;;;;;;;;;;;;;;;26.71;52.17;100857.78;5064493;28;1967;-29
2021/06/29 03:39:16;;;;;;;;;;;;;;;26.75;52.68;100852.88;5096954;28;775;-27
2021/06/29 03:41:41;;;;;;;;;;;;;;;26.65;53.05;100856.66;5096743;28;812;-28
2021/06/29 03:44:07;;;;;;;;;;;;;;;26.22;54.25;100857.00;5095954;28;1006;-30
2021/06/29 03:46:32;;;;;;;;;;;;;;;26.26;54.52;100858.31;5096898;28;791;-43
2021/06/29 03:48:58;;;;;;;;;;;;;;;26.40;54.72;100867.56;5096831;28;828;-41
2021/06/29 03:51:23;;;;;;;;;;;;;;;26.33;54.68;100865.72;5096330;28;796;-39
2021/06/29 03:53:48;;;;;;;;;;;;;;;26.33;55.52;100863.03;5096332;28;1116;-37
2021/06/29 03:59:11;;;;;;;;;;;;;;;26.48;55.46;100865.81;5051094;28;1295;-39
2021/06/29 04:01:37;;;;;;;;;;;;;;;26.77;53.79;100867.88;5096705;28;747;-27
2021/06/29 04:04:02;;;;;;;;;;;;;;;25.19;52.69;100868.22;5096333;28;870;-38
2021/06/29 04:06:28;;;;;;;;;;;;;;;23.62;52.38;100874.56;5096623;28;810;-29
2021/06/29 04:08:54;;;;;;;;;;;;;;;23.49;57.57;100867.72;5096628;28;763;-28
2021/06/29 04:11:19;;;;;;;;;;;;;;;23.40;56.93;100863.31;5096333;28;760;-31
2021/06/29 04:13:44;;;;;;;;;;;;;;;23.82;52.79;100859.91;5095593;28;1457;-28
2021/06/29 04:16:10;;;;;;;;;;;;;;;23.80;50.03;100861.94;5096323;28;1902;-27
2021/06/29 04:18:35;;;;;;;;;;;;;;;23.54;48.89;100865.44;5096379;28;837;-26
2021/06/29 04:21:00;;;;;;;;;;;;;;;23.42;47.82;100862.13;5096086;28;882;-28
2021/06/29 04:23:25;;;;;;;;;;;;;;;21.22;55.42;100854.25;5095974;28;1132;-28
2021/06/29 04:25:51;;;;;;;;;;;;;;;23.75;45.41;100847.28;5096400;28;798;-27
2021/06/29 04:28:16;;;;;;;;;;;;;;;21.35;53.13;100848.66;5096143;28;867;-27
2021/06/29 04:30:41;;;;;;;;;;;;;;;19.97;57.80;100838.41;5096227;28;970;-28
2021/06/29 04:33:06;;;;;;;;;;;;;;;21.76;55.63;100844.91;5096108;28;843;-27
2021/06/29 04:35:32;;;;;;;;;;;;;;;23.21;46.80;100844.50;5096282;28;748;-26
2021/06/29 04:37:57;;;;;;;;;;;;;;;20.11;58.33;100849.75;5096253;28;1972;-27
2021/06/29 04:40:22;;;;;;;;;;;;;;;22.92;50.95;100842.06;5096185;28;820;-28
2021/06/29 04:42:48;;;;;;;;;;;;;;;21.33;54.64;100839.06;5095612;28;967;-27
2021/06/29 04:45:13;;;;;;;;;;;;;;;19.83;59.96;100850.28;5095602;28;1006;-26
2021/06/29 04:47:40;;;;;;;;;;;;;;;22.50;53.21;100860.34;5096276;28;716;-26
2021/06/29 04:50:05;;;;;;;;;;;;;;;23.76;49.12;100863.25;5099551;28;756;-29
2021/06/29 04:52:31;;;;;;;;;;;;;;;20.68;57.45;100862.63;5099612;28;566;-26
2021/06/29 04:54:57;;;;;;;;;;;;;;;20.80;61.13;100858.00;5099684;28;847;-30
2021/06/29 04:57:22;;;;;;;;;;;;;;;23.40;49.81;100857.94;5099664;28;1901;-28
2021/06/29 04:59:47;;;;;;;;;;;;;;;20.50;58.06;100851.75;5099392;28;967;-30
2021/06/29 05:02:12;;;;;;;;;;;;;;;22.60;52.91;100855.81;5099759;28;763;-28
2021/06/29 05:04:38;;;;;;;;;;;;;;;21.77;53.71;100855.47;5099300;28;820;-27
2021/06/29 05:07:03;;;;;;;;;;;;;;;21.54;58.23;100854.94;5099541;28;824;-27
2021/06/29 05:09:28;;;;;;;;;;;;;;;23.64;48.56;100857.28;5100089;28;807;-27
2021/06/29 05:11:54;;;;;;;;;;;;;;;20.67;58.96;100853.75;5099524;28;779;-27
2021/06/29 05:14:19;;;;;;;;;;;;;;;23.22;50.44;100851.53;5099285;28;1100;-30
2021/06/29 05:16:44;;;;;;;;;;;;;;;21.00;56.24;100860.75;5099474;28;1967;-26
2021/06/29 05:19:10;;;;;;;;;;;;;;;22.21;55.46;100863.97;5099165;28;727;-27
2021/06/29 05:21:35;;;;;;;;;;;;;;;22.82;49.24;100861.72;5099175;28;748;-27
2021/06/29 05:24:00;;;;;;;;;;;;;;;20.78;60.74;100860.81;5099235;28;1222;-28
2021/06/29 05:26:26;;;;;;;;;;;;;;;23.41;49.25;100864.97;5099070;28;791;-28
2021/06/29 05:28:51;;;;;;;;;;;;;;;20.67;57.45;100866.25;5099154;28;1014;-27
2021/06/29 05:31:16;;;;;;;;;;;;;;;22.67;52.75;100868.59;5099186;28;859;-28
2021/06/29 05:33:42;;;;;;;;;;;;;;;21.79;53.21;100873.28;5098878;28;805;-27
2021/06/29 05:36:07;;;;;;;;;;;;;;;21.38;58.83;100868.91;5098913;28;866;-29
2021/06/29 05:38:32;;;;;;;;;;;;;;;23.53;49.16;100871.81;5099197;28;799;-28
2021/06/29 05:40:57;;;;;;;;;;;;;;;20.49;57.65;100866.06;5098884;28;805;-27
2021/06/29 05:43:23;;;;;;;;;;;;;;;22.28;55.16;100865.09;5098884;28;819;-31
2021/06/29 05:45:48;;;;;;;;;;;;;;;22.23;50.71;100859.34;5098623;28;951;-26
2021/06/29 05:48:17;;;;;;;;;;;;;;;20.92;59.56;100869.41;5098539;28;783;-28
2021/06/29 05:50:42;;;;;;;;;;;;;;;23.40;49.18;100863.31;5098794;28;819;-25
2021/06/29 05:53:07;;;;;;;;;;;;;;;20.39;57.79;100869.56;5098906;28;760;-27
2021/06/29 05:55:33;;;;;;;;;;;;;;;22.82;51.46;100867.09;5097949;28;958;-27
2021/06/29 05:57:58;;;;;;;;;;;;;;;21.26;54.81;100860.19;5098348;28;1906;-27
2021/06/29 06:00:23;;;;;;;;;;;;;;;21.69;56.73;100862.56;5098221;28;971;-30
2021/06/29 06:02:49;;;;;;;;;;;;;;;23.64;48.57;100864.50;5098265;28;768;-28
2021/06/29 06:05:14;;;;;;;;;;;;;;;20.22;58.04;100860.34;5098155;28;839;-28
2021/06/29 06:07:39;;;;;;;;;;;;;;;22.61;52.73;100862.84;5098693;28;743;-26
2021/06/29 06:10:05;;;;;;;;;;;;;;;21.58;53.87;100860.88;5097668;28;836;-27
2021/06/29 06:12:31;;;;;;;;;;;;;;;20.73;60.17;100865.72;5098644;28;790;-26
2021/06/29 06:14:57;;;;;;;;;;;;;;;23.29;49.39;100864.38;5098021;28;958;-29
2021/06/29 06:17:22;;;;;;;;;;;;;;;20.62;56.92;100864.00;5098000;28;1913;-27
2021/06/29 06:19:47;;;;;;;;;;;;;;;21.86;55.96;100872.56;5098044;28;796;-27
2021/06/29 06:22:13;;;;;;;;;;;;;;;23.01;49.46;100867.97;5098250;28;1250;-28
2021/06/29 06:24:38;;;;;;;;;;;;;;;20.41;58.41;100872.09;5098139;28;807;-27
2021/06/29 06:27:03;;;;;;;;;;;;;;;22.96;50.69;100865.72;5097767;28;814;-29
2021/06/29 06:29:29;;;;;;;;;;;;;;;20.95;55.59;100865.66;5097830;28;974;-28
2021/06/29 06:31:54;;;;;;;;;;;;;;;21.88;55.75;100864.38;5098123;28;743;-27
2021/06/29 06:34:19;;;;;;;;;;;;;;;23.47;48.03;100865.22;5097784;28;851;-29
2021/06/29 06:36:46;;;;;;;;;;;;;;;20.46;57.41;100867.19;5097726;28;1975;-31
2021/06/29 06:39:11;;;;;;;;;;;;;;;22.93;50.45;100863.38;5097926;28;755;-27
2021/06/29 06:41:37;;;;;;;;;;;;;;;21.32;54.67;100861.47;5097514;28;815;-26
2021/06/29 06:44:02;;;;;;;;;;;;;;;20.99;59.58;100867.91;5097682;28;954;-30
2021/06/29 06:46:27;;;;;;;;;;;;;;;23.43;49.13;100863.84;5097642;28;796;-29
2021/06/29 06:48:53;;;;;;;;;;;;;;;20.78;56.14;100873.34;5097498;28;771;-28
2021/06/29 06:51:18;;;;;;;;;;;;;;;22.46;53.10;100866.97;5097151;28;838;-28
2021/06/29 06:53:43;;;;;;;;;;;;;;;22.30;51.14;100863.13;5097766;28;731;-27
2021/06/29 06:56:15;;;;;;;;;;;;;;;20.82;58.84;100879.25;5097077;28;847;-30
2021/06/29 06:58:41;;;;;;;;;;;;;;;23.32;49.16;100866.75;5097325;28;963;-27
2021/06/29 07:01:06;;;;;;;;;;;;;;;20.84;56.02;100863.91;5097705;28;861;-35
2021/06/29 07:03:32;;;;;;;;;;;;;;;20.55;60.11;100871.72;5097094;28;748;-26
2021/06/29 07:05:57;;;;;;;;;;;;;;;23.20;49.79;100874.19;5096979;28;894;-29
2021/06/29 07:08:22;;;;;;;;;;;;;;;20.72;56.52;100868.53;5097424;28;759;-27
2021/06/29 07:10:47;;;;;;;;;;;;;;;20.34;61.00;100871.78;5096061;28;839;-28
2021/06/29 07:13:13;;;;;;;;;;;;;;;23.05;50.44;100869.34;5097273;28;738;-29
2021/06/29 07:15:38;;;;;;;;;;;;;;;20.57;57.02;100866.22;5096972;28;955;-29
2021/06/29 07:18:04;;;;;;;;;;;;;;;22.79;51.45;100861.19;5096311;28;1894;-27
2021/06/29 07:20:29;;;;;;;;;;;;;;;21.58;53.87;100864.41;5078920;28;1246;-29
2021/06/29 07:22:54;;;;;;;;;;;;;;;20.12;58.97;100860.28;5097070;28;1106;-27
2021/06/29 07:25:20;;;;;;;;;;;;;;;22.56;52.82;100859.75;5096405;28;1457;-27
2021/06/29 07:27:46;;;;;;;;;;;;;;;21.54;54.37;100860.31;5096519;28;812;-27
2021/06/29 07:30:11;;;;;;;;;;;;;;;20.13;59.04;100862.00;5096868;28;1025;-25
2021/06/29 07:32:41;;;;;;;;;;;;;;;22.65;52.57;100859.88;5096386;28;881;-26
2021/06/29 07:35:06;;;;;;;;;;;;;;;21.28;55.17;100860.91;5097083;28;780;-27
2021/06/29 07:37:32;;;;;;;;;;;;;;;20.62;60.65;100861.31;5096718;28;1926;-29
2021/06/29 07:39:57;;;;;;;;;;;;;;;23.24;50.94;100860.28;5096328;28;846;-28
2021/06/29 07:42:22;;;;;;;;;;;;;;;21.09;55.97;100861.72;5096957;28;811;-29
2021/06/29 07:44:47;;;;;;;;;;;;;;;21.94;56.25;100865.66;5096497;28;959;-27
2021/06/29 07:47:13;;;;;;;;;;;;;;;23.65;49.15;100860.81;5096465;28;844;-28
2021/06/29 07:49:38;;;;;;;;;;;;;;;20.52;57.88;100861.28;5096789;28;764;-29
2021/06/29 07:52:03;;;;;;;;;;;;;;;20.40;61.44;100862.41;5096498;28;834;-27
2021/06/29 07:54:29;;;;;;;;;;;;;;;23.08;51.45;100869.03;5096318;28;826;-27
2021/06/29 07:56:54;;;;;;;;;;;;;;;20.78;57.08;100870.66;5096706;28;1902;-26
2021/06/29 07:59:19;;;;;;;;;;;;;;;20.04;61.55;100870.78;5096338;28;1010;-27
2021/06/29 08:01:45;;;;;;;;;;;;;;;22.80;53.08;100868.25;5096154;28;871;-27
2021/06/29 08:04:10;;;;;;;;;;;;;;;21.22;56.17;100864.13;5096766;28;831;-28
2021/06/29 08:06:35;;;;;;;;;;;;;;;20.14;60.14;100863.69;5096468;28;867;-29
2021/06/29 08:09:01;;;;;;;;;;;;;;;19.86;62.26;100859.84;5096301;28;791;-26
2021/06/29 08:11:26;;;;;;;;;;;;;;;22.60;53.69;100871.91;5096263;28;823;-30
2021/06/29 08:13:51;;;;;;;;;;;;;;;21.22;56.70;100872.16;5096283;28;951;-30
2021/06/29 08:16:16;;;;;;;;;;;;;;;20.30;61.88;100868.53;5077596;28;1965;-30
2021/06/29 08:18:42;;;;;;;;;;;;;;;22.91;52.43;100869.84;5096699;28;759;-39
2021/06/29 08:21:07;;;;;;;;;;;;;;;21.26;56.74;100865.53;5096014;28;838;-28
2021/06/29 08:23:33;;;;;;;;;;;;;;;20.26;59.94;100872.47;5099365;28;1315;-28
2021/06/29 08:25:58;;;;;;;;;;;;;;;22.06;56.75;100861.78;5100621;28;752;-29
2021/06/29 08:28:23;;;;;;;;;;;;;;;22.47;52.94;100868.69;5100277;28;759;-28
2021/06/29 08:30:51;;;;;;;;;;;;;;;20.62;59.50;100871.19;5099816;28;962;-31
2021/06/29 08:33:20;;;;;;;;;;;;;;;21.04;62.64;100865.66;5100125;28;844;-26
2021/06/29 08:35:45;;;;;;;;;;;;;;;23.35;53.55;100861.91;5099860;28;1589;-25
2021/06/29 08:38:11;;;;;;;;;;;;;;;21.11;59.69;100860.59;5099507;28;1981;-28
2021/06/29 08:40:37;;;;;;;;;;;;;;;19.84;64.66;100849.28;5100218;28;752;-29
2021/06/29 08:43:06;;;;;;;;;;;;;;;20.15;67.72;100853.84;5100363;28;795;-28
2021/06/29 08:45:31;;;;;;;;;;;;;;;22.92;56.26;100856.28;5099570;28;1013;-29
2021/06/29 08:47:57;;;;;;;;;;;;;;;20.91;62.17;100857.88;5099998;28;763;-29
2021/06/29 08:50:24;;;;;;;;;;;;;;;19.83;65.46;100850.28;5099838;28;780;-31
2021/06/29 08:52:49;;;;;;;;;;;;;;;19.31;66.97;100854.56;5099623;28;831;-24
2021/06/29 08:55:15;;;;;;;;;;;;;;;19.16;67.78;100856.66;5100516;28;787;-25
2021/06/29 08:57:40;;;;;;;;;;;;;;;19.08;67.93;100854.59;5099513;28;1973;-27
2021/06/29 09:00:06;;;;;;;;;;;;;;;19.15;68.87;100857.63;5099586;28;1009;-26
2021/06/29 09:02:31;;;;;;;;;;;;;;;22.16;58.88;100856.38;5081001;28;1326;-34
2021/06/29 09:05:00;;;;;;;;;;;;;;;21.80;56.99;100862.44;5100082;28;747;-26
2021/06/29 09:07:28;;;;;;;;;;;;;;;21.23;58.68;100860.47;5099861;28;771;-25
2021/06/29 09:09:55;;;;;;;;;;;;;;;20.99;59.10;100859.03;5099048;28;790;-28
2021/06/29 09:12:40;;;;;;;;;;;;;;;20.88;59.59;100854.63;5099606;28;834;-25
2021/06/29 09:15:24;;;;;;;;;;;;;;;20.84;59.54;100855.88;5099049;28;1010;-28
2021/06/29 09:17:49;;;;;;;;;;;;;;;21.57;59.35;100853.84;5099135;28;1981;-26
2021/06/29 09:20:15;;;;;;;;;;;;;;;22.98;54.41;100858.38;5099502;28;798;-25
2021/06/29 09:22:40;;;;;;;;;;;;;;;20.05;61.42;100857.31;5099030;28;1124;-25
2021/06/29 09:25:21;;;;;;;;;;;;;;;18.90;64.24;100851.63;5099292;28;839;-29
2021/06/29 09:27:47;;;;;;;;;;;;;;;21.52;59.06;100851.59;5099772;28;827;-25
2021/06/29 09:30:31;;;;;;;;;;;;;;;21.02;58.49;100856.09;5098738;28;1021;-37
2021/06/29 09:33:03;;;;;;;;;;;;;;;19.42;64.19;100850.97;5099113;28;756;-25
2021/06/29 09:35:29;;;;;;;;;;;;;;;20.81;63.18;100849.00;5098621;28;768;-26
2021/06/29 09:37:54;;;;;;;;;;;;;;;22.70;55.02;100847.72;5098731;28;1969;-26
2021/06/29 09:40:20;;;;;;;;;;;;;;;19.73;63.44;100844.03;5099140;28;790;-26
2021/06/29 09:42:45;;;;;;;;;;;;;;;19.21;65.47;100840.28;5099209;28;798;-31
2021/06/29 09:45:31;;;;;;;;;;;;;;;18.94;66.49;100837.06;5098388;28;950;-38
2021/06/29 09:47:56;;;;;;;;;;;;;;;21.96;58.00;100835.03;5098555;28;1179;-28
2021/06/29 09:50:33;;;;;;;;;;;;;;;20.28;61.60;100832.25;5098765;28;827;-26
2021/06/29 09:53:09;;;;;;;;;;;;;;;19.22;65.45;100836.63;5098676;28;815;-38
2021/06/29 09:55:40;;;;;;;;;;;;;;;18.93;66.61;100831.88;5098966;28;755;-26
2021/06/29 09:58:09;;;;;;;;;;;;;;;19.88;67.20;100829.38;5098875;28;1972;-27
2021/06/29 10:00:51;;;;;;;;;;;;;;;22.42;56.16;100828.91;5097910;28;955;-26
2021/06/29 10:03:19;;;;;;;;;;;;;;;19.67;64.63;100832.03;5098688;28;759;-27
2021/06/29 10:05:45;;;;;;;;;;;;;;;19.16;67.26;100831.81;5098186;28;812;-26
2021/06/29 10:08:10;;;;;;;;;;;;;;;19.01;68.74;100836.56;5097786;28;800;-29
2021/06/29 10:10:35;;;;;;;;;;;;;;;18.96;69.49;100828.94;5098292;28;779;-28
2021/06/29 10:13:14;;;;;;;;;;;;;;;19.63;71.53;100834.16;5098479;28;767;-28
2021/06/29 10:15:39;;;;;;;;;;;;;;;22.36;59.41;100829.50;5098129;28;954;-27
2021/06/29 10:18:04;;;;;;;;;;;;;;;19.77;66.57;100832.94;5098370;28;1964;-29
2021/06/29 10:20:38;;;;;;;;;;;;;;;19.18;68.07;100837.88;5098017;28;818;-27
2021/06/29 10:23:03;;;;;;;;;;;;;;;19.00;68.45;100837.53;5098030;28;1263;-26
2021/06/29 10:25:28;;;;;;;;;;;;;;;21.13;63.86;100834.56;5080287;28;759;-26
2021/06/29 10:27:53;;;;;;;;;;;;;;;21.48;59.18;100824.28;5098218;28;799;-25
2021/06/29 10:30:19;;;;;;;;;;;;;;;19.31;66.71;100824.34;5079191;28;1019;-33
2021/06/29 10:32:44;;;;;;;;;;;;;;;20.57;66.08;100828.81;5098275;28;783;-31
2021/06/29 10:35:10;;;;;;;;;;;;;;;22.60;56.89;100831.69;5097948;28;831;-26
2021/06/29 10:37:37;;;;;;;;;;;;;;;19.80;64.35;100830.00;5097685;28;1918;-25
2021/06/29 10:40:03;;;;;;;;;;;;;;;19.60;67.88;100818.41;5097729;28;751;-43
2021/06/29 10:42:28;;;;;;;;;;;;;;;22.30;57.87;100814.88;5079791;28;803;-26
2021/06/29 10:44:54;;;;;;;;;;;;;;;20.70;61.58;100823.25;5097276;28;955;-41
2021/06/29 10:47:29;;;;;;;;;;;;;;;20.08;65.70;100821.50;5098251;28;771;-40
2021/06/29 10:49:58;;;;;;;;;;;;;;;22.69;55.60;100816.50;5097726;28;714;-30
2021/06/29 10:52:23;;;;;;;;;;;;;;;20.72;61.24;100817.75;5097423;28;803;-27
2021/06/29 10:54:55;;;;;;;;;;;;;;;19.80;64.04;100819.34;5097948;28;815;-34
2021/06/29 10:57:24;;;;;;;;;;;;;;;22.14;57.97;100810.13;5097460;28;1906;-29
2021/06/29 10:59:50;;;;;;;;;;;;;;;21.32;58.86;100814.13;5096780;28;1017;-29
2021/06/29 11:02:28;;;;;;;;;;;;;;;20.11;62.78;100813.22;5097390;28;751;-28
2021/06/29 11:04:58;;;;;;;;;;;;;;;22.17;57.63;100804.47;5097585;28;836;-29
2021/06/29 11:07:26;;;;;;;;;;;;;;;21.74;57.10;100810.25;5096862;28;812;-27
2021/06/29 11:09:55;;;;;;;;;;;;;;;20.27;61.87;100807.34;5096916;28;794;-42
2021/06/29 11:12:24;;;;;;;;;;;;;;;19.69;63.94;100801.59;5097451;28;796;-30
2021/06/29 11:14:50;;;;;;;;;;;;;;;19.57;65.99;100806.16;5096938;28;994;-28
2021/06/29 11:17:16;;;;;;;;;;;;;;;22.42;56.14;100806.63;5097028;28;1905;-26
2021/06/29 11:20:12;;;;;;;;;;;;;;;20.68;60.32;100814.50;5097237;28;760;-28
2021/06/29 11:22:56;;;;;;;;;;;;;;;19.69;64.12;100796.25;5079668;28;1466;-28
2021/06/29 11:25:41;;;;;;;;;;;;;;;20.77;63.68;100796.78;5096885;28;821;-29
2021/06/29 11:28:09;;;;;;;;;;;;;;;22.71;54.84;100800.25;5097200;28;779;-29
2021/06/29 11:30:52;;;;;;;;;;;;;;;20.25;63.35;100787.94;5096295;28;966;-33
2021/06/29 11:33:30;;;;;;;;;;;;;;;22.94;53.81;100787.25;5096789;28;824;-28
2021/06/29 11:35:55;;;;;;;;;;;;;;;20.73;60.18;100792.69;5096730;28;959;-38
2021/06/29 11:38:30;;;;;;;;;;;;;;;19.93;63.96;100784.44;5096759;28;1910;-41
2021/06/29 11:40:56;;;;;;;;;;;;;;;22.74;54.58;100789.22;5096729;28;791;-31
2021/06/29 11:43:21;;;;;;;;;;;;;;;21.09;58.89;100784.16;5096599;28;894;-28
2021/06/29 11:45:46;;;;;;;;;;;;;;;20.11;62.27;100783.84;5078143;28;1306;-27
2021/06/29 11:48:30;;;;;;;;;;;;;;;22.27;56.58;100783.84;5078158;28;808;-42
2021/06/29 11:50:56;;;;;;;;;;;;;;;21.46;57.84;100779.88;5096064;28;748;-31
2021/06/29 11:53:22;;;;;;;;;;;;;;;20.23;61.75;100789.06;5078544;28;1162;-41
2021/06/29 11:55:47;;;;;;;;;;;;;;;22.20;56.82;100779.25;5096812;28;826;-28
2021/06/29 11:58:12;;;;;;;;;;;;;;;22.32;54.62;100778.03;5095664;28;1890;-29
2021/06/29 12:00:38;;;;;;;;;;;;;;;20.46;60.63;100779.00;5096239;28;1006;-27
2021/06/29 12:03:07;;;;;;;;;;;;;;;20.19;64.55;100777.81;5096659;28;817;-26
2021/06/29 12:05:33;;;;;;;;;;;;;;;22.99;54.04;100781.41;5095804;28;795;-28
2021/06/29 12:08:02;;;;;;;;;;;;;;;20.92;58.82;100781.16;5096608;28;823;-29
2021/06/29 12:10:28;;;;;;;;;;;;;;;19.93;62.46;100775.56;5096201;28;843;-41
2021/06/29 12:12:59;;;;;;;;;;;;;;;22.06;57.26;100777.88;5095962;28;918;-42
2021/06/29 12:15:34;;;;;;;;;;;;;;;22.00;55.23;100774.81;5096019;28;967;-31
2021/06/29 12:18:00;;;;;;;;;;;;;;;20.27;61.07;100777.16;5096519;28;1902;-28
2021/06/29 12:20:27;;;;;;;;;;;;;;;21.63;59.62;100778.31;5078198;28;780;-27
2021/06/29 12:22:52;;;;;;;;;;;;;;;23.29;52.11;100779.31;5096302;28;1304;-31
2021/06/29 12:25:17;;;;;;;;;;;;;;;20.68;59.35;100771.75;5096409;28;783;-29
2021/06/29 12:27:53;;;;;;;;;;;;;;;20.59;63.41;100765.38;5095999;28;769;-29
2021/06/29 12:30:19;;;;;;;;;;;;;;;23.23;52.66;100769.19;5096112;28;978;-27
2021/06/29 12:32:45;;;;;;;;;;;;;;;20.67;58.95;100767.34;5096130;28;799;-28
2021/06/29 12:35:10;;;;;;;;;;;;;;;21.15;61.41;100767.56;5095930;28;819;-35
2021/06/29 12:37:54;;;;;;;;;;;;;;;23.43;52.20;100769.88;5096608;28;1919;-28
2021/06/29 12:40:19;;;;;;;;;;;;;;;20.32;60.07;100764.19;5096072;28;905;-28
2021/06/29 12:42:45;;;;;;;;;;;;;;;21.61;59.35;100761.53;5095852;28;747;-28
2021/06/29 12:45:10;;;;;;;;;;;;;;;23.59;51.27;100765.59;5096041;28;963;-26
2021/06/29 12:47:36;;;;;;;;;;;;;;;20.50;59.46;100755.53;5096095;28;772;-31
2021/06/29 12:50:01;;;;;;;;;;;;;;;19.78;62.86;100751.06;5095906;28;807;-40
2021/06/29 12:52:26;;;;;;;;;;;;;;;22.66;54.71;100755.13;5095719;28;867;-28
2021/06/29 12:54:52;;;;;;;;;;;;;;;21.39;56.75;100755.53;5078014;28;776;-27
2021/06/29 12:57:18;;;;;;;;;;;;;;;20.03;61.20;100759.59;5077351;28;1901;-29
2021/06/29 12:59:45;;;;;;;;;;;;;;;21.82;58.46;100750.63;5095796;28;1021;-30
2021/06/29 13:02:14;;;;;;;;;;;;;;;22.53;53.18;100747.44;5095810;28;859;-29
2021/06/29 13:04:58;;;;;;;;;;;;;;;20.13;60.79;100749.81;5096074;28;756;-30
2021/06/29 13:07:23;;;;;;;;;;;;;;;19.96;64.71;100748.59;5096139;28;781;-28
2021/06/29 13:09:49;;;;;;;;;;;;;;;22.87;53.78;100745.97;5097672;28;851;-29